Time;durP1;ratioP1;P1;durP2;ratioP2;P2;SDS_P1;SDS_P2;PMS_P1;PMS_P2;Temp;Humidity;BMP_temperature;BMP_pressure;BME280_temperature;BME280_humidity;BME280_pressure;Samples;Min_cycle;Max_cycle;Signal;HPM_P1;HPM_P2
2022/04/13 00:01:54;;;;;;;2.97;1.48;;;11.40;95.60;;;;;;5086330;28;19916;-68
2022/04/13 00:04:25;;;;;;;3.33;1.27;;;11.40;95.20;;;;;;5075563;28;20037;-68
2022/04/13 00:06:54;;;;;;;2.75;1.33;;;11.50;95.70;;;;;;5075735;28;20072;-68
2022/04/13 00:09:24;;;;;;;4.35;1.55;;;11.40;96.10;;;;;;5099999;28;20428;-68
2022/04/13 00:11:52;;;;;;;4.32;1.55;;;11.50;95.80;;;;;;5099809;28;20122;-69
2022/04/13 00:14:27;;;;;;;1.45;1.00;;;11.50;95.70;;;;;;5074353;28;20037;-68
2022/04/13 00:16:54;;;;;;;9.05;1.25;;;11.50;96.50;;;;;;5075543;28;20051;-67
2022/04/13 00:19:21;;;;;;;8.27;2.00;;;11.50;96.20;;;;;;5083090;28;20470;-68
2022/04/13 00:21:48;;;;;;;7.25;1.65;;;11.50;95.40;;;;;;5085342;28;20133;-68
2022/04/13 00:24:14;;;;;;;4.10;1.67;;;11.50;96.70;;;;;;5079752;28;20044;-67
2022/04/13 00:26:40;;;;;;;;;;;11.50;95.60;;;;;;5062783;28;20063;-69
2022/04/13 00:29:06;;;;;;;2.55;1.60;;;11.50;95.20;;;;;;5066366;28;19923;-70
2022/04/13 00:31:31;;;;;;;;;;;11.60;95.30;;;;;;5067917;28;20044;-71
2022/04/13 00:33:57;;;;;;;3.80;1.40;;;11.60;95.40;;;;;;5061179;28;19931;-69
2022/04/13 00:36:23;;;;;;;;;;;11.60;95.90;;;;;;5070266;28;20045;-69
2022/04/13 00:38:48;;;;;;;8.73;1.70;;;11.60;95.80;;;;;;5064591;28;19977;-69
2022/04/13 00:41:14;;;;;;;;;;;11.60;95.60;;;;;;5065584;28;20045;-68
2022/04/13 00:43:40;;;;;;;3.22;1.58;;;11.70;94.80;;;;;;5070824;28;19916;-69
2022/04/13 00:46:06;;;;;;;2.88;1.60;;;11.70;94.30;;;;;;5085991;28;20471;-70
2022/04/13 00:48:35;;;;;;;;;;;11.80;94.60;;;;;;5076204;28;20044;-69
2022/04/13 00:51:01;;;;;;;4.75;1.52;;;11.80;93.60;;;;;;5065395;28;20749;-68
2022/04/13 00:53:27;;;;;;;;;;;11.90;95.20;;;;;;5071935;28;20044;-66
2022/04/13 00:55:58;;;;;;;3.85;1.52;;;11.90;94.70;;;;;;5081443;28;19923;-66
2022/04/13 00:58:28;;;;;;;5.03;1.63;;;11.80;94.40;;;;;;5083912;28;20044;-67
2022/04/13 01:00:55;;;;;;;7.90;1.63;;;11.80;94.50;;;;;;5085311;28;20040;-67
2022/04/13 01:03:24;;;;;;;6.53;1.33;;;11.80;94.40;;;;;;5077700;28;20068;-67
2022/04/13 01:05:51;;;;;;;5.00;1.40;;;11.80;94.30;;;;;;5079694;28;20068;-67
2022/04/13 01:08:18;;;;;;;3.28;1.35;;;11.80;93.80;;;;;;5079810;28;20047;-67
2022/04/13 01:10:46;;;;;;;2.72;1.15;;;11.80;94.10;;;;;;5068275;28;20095;-67
2022/04/13 01:13:13;;;;;;;5.32;1.83;;;11.90;94.00;;;;;;5069548;28;20562;-67
2022/04/13 01:15:39;;;;;;;5.75;1.38;;;11.90;93.70;;;;;;5087462;28;20256;-67
2022/04/13 01:18:05;;;;;;;;;;;11.90;93.60;;;;;;5087371;28;20755;-67
2022/04/13 01:20:31;;;;;;;4.18;2.42;;;11.90;93.80;;;;;;5067380;28;19959;-66
2022/04/13 01:22:57;;;;;;;2.03;1.35;;;12.00;93.60;;;;;;5075978;28;20036;-67
2022/04/13 01:25:22;;;;;;;;;;;12.00;93.50;;;;;;5071557;28;20065;-67
2022/04/13 01:27:48;;;;;;;5.07;1.60;;;12.00;93.50;;;;;;5071825;28;19916;-69
2022/04/13 01:30:14;;;;;;;;;;;12.00;93.60;;;;;;5069644;28;20048;-67
2022/04/13 01:32:40;;;;;;;2.70;1.50;;;11.90;93.80;;;;;;5071532;28;20087;-67
2022/04/13 01:35:06;;;;;;;;;;;11.90;94.00;;;;;;5083201;28;20036;-67
2022/04/13 01:37:33;;;;;;;3.70;1.58;;;11.90;94.00;;;;;;5068208;28;19928;-69
2022/04/13 01:39:59;;;;;;;3.47;1.50;;;11.80;93.90;;;;;;5068841;28;20075;-67
2022/04/13 01:42:24;;;;;;;;;;;11.90;93.90;;;;;;5065870;28;20064;-66
2022/04/13 01:44:50;;;;;;;5.35;2.08;;;11.90;93.90;;;;;;5067997;28;19920;-67
2022/04/13 01:47:15;;;;;;;;;;;11.90;94.30;;;;;;5065820;28;20032;-68
2022/04/13 01:49:42;;;;;;;3.97;1.77;;;11.90;93.80;;;;;;5077836;28;19915;-67
2022/04/13 01:52:09;;;;;;;2.20;1.20;;;11.90;94.20;;;;;;5088452;28;20070;-67
2022/04/13 01:54:35;;;;;;;3.67;1.50;;;11.80;94.00;;;;;;5083758;28;20036;-67
2022/04/13 01:57:01;;;;;;;;;;;11.90;93.90;;;;;;5066003;28;20133;-66
2022/04/13 01:59:27;;;;;;;5.03;1.70;;;11.80;93.90;;;;;;5075631;28;19944;-67
2022/04/13 02:01:52;;;;;;;;;;;11.80;93.80;;;;;;5063836;28;20039;-67
2022/04/13 02:04:25;;;;;;;5.70;1.38;;;11.80;93.90;;;;;;5069466;28;19920;-67
2022/04/13 02:06:52;;;;;;;3.88;1.58;;;11.70;94.40;;;;;;5086235;28;20040;-66
2022/04/13 02:09:18;;;;;;;2.05;1.27;;;11.70;94.20;;;;;;5075243;28;20085;-66
2022/04/13 02:11:45;;;;;;;1.98;1.20;;;11.70;94.10;;;;;;5085965;28;20126;-67
2022/04/13 02:14:11;;;;;;;3.05;1.60;;;11.80;94.30;;;;;;5084651;28;20725;-66
2022/04/13 02:16:37;;;;;;;;;;;11.70;94.30;;;;;;5065940;28;20111;-66
2022/04/13 02:19:03;;;;;;;4.38;1.50;;;11.70;94.30;;;;;;5065671;28;19970;-67
2022/04/13 02:21:30;;;;;;;2.97;1.52;;;11.70;94.60;;;;;;5065892;28;20435;-67
2022/04/13 02:23:57;;;;;;;2.83;1.40;;;11.70;94.40;;;;;;5083034;28;20508;-66
2022/04/13 02:26:23;;;;;;;3.72;1.52;;;11.70;94.40;;;;;;5082690;28;20063;-67
2022/04/13 02:28:49;;;;;;;4.80;1.52;;;11.70;94.60;;;;;;5073925;28;20047;-67
2022/04/13 02:31:15;;;;;;;;;;;11.70;94.60;;;;;;5069510;28;20037;-66
2022/04/13 02:33:41;;;;;;;4.32;1.33;;;11.70;95.00;;;;;;5063859;28;20021;-67
2022/04/13 02:36:06;;;;;;;;;;;11.60;94.80;;;;;;5063153;28;20072;-66
2022/04/13 02:38:32;;;;;;;4.65;1.40;;;11.60;95.30;;;;;;5067425;28;19920;-66
2022/04/13 02:40:58;;;;;;;;;;;11.60;96.00;;;;;;5067369;28;20036;-66
2022/04/13 02:43:25;;;;;;;4.15;1.50;;;11.60;95.50;;;;;;5069194;28;20444;-66
2022/04/13 02:45:50;;;;;;;3.85;1.63;;;11.60;95.30;;;;;;5086293;28;20044;-67
2022/04/13 02:48:16;;;;;;;;;;;11.60;95.30;;;;;;5087339;28;20639;-66
2022/04/13 02:50:42;;;;;;;4.50;1.80;;;11.60;95.40;;;;;;5076916;28;19921;-66
2022/04/13 02:53:07;;;;;;;;;;;11.60;95.20;;;;;;5065402;28;20051;-66
2022/04/13 02:55:33;;;;;;;2.97;1.60;;;11.60;95.40;;;;;;5066997;28;20657;-66
2022/04/13 02:57:59;;;;;;;;;;;11.60;95.40;;;;;;5068742;28;20044;-66
2022/04/13 03:00:24;;;;;;;5.47;1.73;;;11.60;95.70;;;;;;5067829;28;20423;-67
2022/04/13 03:02:50;;;;;;;;;;;11.60;95.80;;;;;;5084569;28;20850;-66
2022/04/13 03:05:16;;;;;;;5.85;1.88;;;11.60;95.80;;;;;;5077317;28;20287;-66
2022/04/13 03:07:42;;;;;;;7.82;1.95;;;11.60;95.80;;;;;;5062183;28;20048;-66
2022/04/13 03:10:08;;;;;;;;;;;11.50;96.10;;;;;;5064127;28;20052;-67
2022/04/13 03:12:34;;;;;;;4.40;1.60;;;11.50;96.10;;;;;;5078801;28;19919;-66
2022/04/13 03:15:01;;;;;;;6.65;1.58;;;11.50;96.10;;;;;;5098740;28;20044;-66
2022/04/13 03:17:27;;;;;;;3.85;1.52;;;11.50;96.40;;;;;;5092273;28;20170;-67
2022/04/13 03:19:53;;;;;;;4.43;1.63;;;11.50;96.30;;;;;;5075551;28;20036;-66
2022/04/13 03:22:21;;;;;;;;;;;11.40;97.00;;;;;;5086158;28;20589;-66
2022/04/13 03:24:47;;;;;;;6.80;2.15;;;11.40;97.00;;;;;;5079838;28;19942;-66
2022/04/13 03:27:12;;;;;;;;;;;11.40;97.00;;;;;;5081672;28;20551;-67
2022/04/13 03:29:38;;;;;;;3.00;1.40;;;11.40;97.10;;;;;;5065703;28;19923;-66
2022/04/13 03:32:04;;;;;;;;;;;11.40;97.60;;;;;;5080629;28;20040;-67
2022/04/13 03:34:30;;;;;;;3.40;1.90;;;11.40;97.90;;;;;;5081287;28;19916;-67
2022/04/13 03:36:55;;;;;;;;;;;11.50;97.80;;;;;;5076868;28;20093;-66
2022/04/13 03:39:21;;;;;;;5.72;1.70;;;11.50;97.80;;;;;;5080061;28;19926;-66
2022/04/13 03:41:46;;;;;;;;;;;11.50;98.20;;;;;;5076648;28;20093;-67
2022/04/13 03:44:12;;;;;;;6.63;1.48;;;11.50;99.10;;;;;;5066220;28;20199;-67
2022/04/13 03:46:38;;;;;;;;;;;11.40;98.50;;;;;;5089442;28;20067;-67
2022/04/13 03:49:03;;;;;;;3.17;1.33;;;11.40;98.30;;;;;;5081943;28;19916;-67
2022/04/13 03:51:29;;;;;;;;;;;11.50;98.20;;;;;;5074525;28;20127;-67
2022/04/13 03:53:54;;;;;;;5.65;1.45;;;11.60;98.40;;;;;;5066406;28;19928;-67
2022/04/13 03:56:20;;;;;;;;;;;11.60;99.00;;;;;;5071343;28;20598;-67
2022/04/13 03:58:46;;;;;;;6.88;1.40;;;11.60;99.90;;;;;;5078391;28;19919;-66
2022/04/13 04:01:11;;;;;;;;;;;11.60;99.90;;;;;;5083112;28;20086;-67
2022/04/13 04:03:37;;;;;;;7.88;1.65;;;11.60;99.70;;;;;;5064849;28;19951;-68
2022/04/13 04:06:04;;;;;;;9.73;2.10;;;11.50;99.90;;;;;;5069714;28;20123;-67
2022/04/13 04:08:32;;;;;;;5.75;1.67;;;11.40;99.90;;;;;;5078106;28;20028;-67
2022/04/13 04:10:58;;;;;;;5.07;1.75;;;11.30;99.90;;;;;;5086427;28;20044;-66
2022/04/13 04:13:24;;;;;;;3.97;1.75;;;11.20;99.90;;;;;;5065445;28;20114;-67
2022/04/13 04:15:49;;;;;;;;;;;11.20;99.70;;;;;;5068249;28;20070;-67
2022/04/13 04:18:15;;;;;;;7.38;1.38;;;11.20;99.40;;;;;;5069938;28;19920;-67
2022/04/13 04:20:41;;;;;;;;;;;11.20;99.40;;;;;;5069210;28;20068;-67
2022/04/13 04:23:07;;;;;;;3.47;1.50;;;11.20;99.10;;;;;;5071654;28;19931;-67
2022/04/13 04:25:32;;;;;;;;;;;11.20;99.20;;;;;;5067699;28;20048;-66
2022/04/13 04:27:58;;;;;;;4.25;1.77;;;11.30;99.40;;;;;;5080905;28;19916;-67
2022/04/13 04:30:23;;;;;;;;;;;11.30;99.70;;;;;;5071624;28;20123;-67
2022/04/13 04:32:49;;;;;;;10.52;1.55;;;11.30;99.80;;;;;;5090431;28;19926;-71
2022/04/13 04:35:14;;;;;;;;;;;11.30;99.90;;;;;;5083666;28;20538;-67
2022/04/13 04:37:40;;;;;;;3.70;1.40;;;11.30;99.90;;;;;;5075241;28;20569;-68
2022/04/13 04:40:06;;;;;;;3.85;1.50;;;11.20;99.80;;;;;;5099790;28;20042;-71
2022/04/13 04:42:43;;;;;;;7.57;1.90;;;11.20;99.90;;;;;;5096786;28;20039;-69
2022/04/13 04:45:09;;;;;;;3.47;1.70;;;11.30;99.80;;;;;;5060256;28;20504;-68
2022/04/13 04:47:35;;;;;;;;;;;11.30;99.90;;;;;;5072470;28;20048;-69
2022/04/13 04:50:00;;;;;;;5.35;1.80;;;11.30;99.90;;;;;;5083076;28;19916;-68
2022/04/13 04:52:26;;;;;;;;;;;11.30;99.90;;;;;;5084826;28;20472;-67
2022/04/13 04:54:51;;;;;;;3.80;1.30;;;11.30;99.90;;;;;;5079748;28;19920;-68
2022/04/13 04:57:17;;;;;;;;;;;11.20;99.90;;;;;;5071919;28;20067;-70
2022/04/13 04:59:42;;;;;;;8.18;1.60;;;11.20;99.90;;;;;;5075535;28;19916;-66
2022/04/13 05:02:08;;;;;;;;;;;11.10;99.90;;;;;;5063662;28;20043;-66
2022/04/13 05:04:33;;;;;;;7.82;2.08;;;11.00;99.90;;;;;;5060768;28;19917;-68
2022/04/13 05:06:59;;;;;;;;;;;10.90;99.90;;;;;;5063136;28;20515;-67
2022/04/13 05:09:25;;;;;;;5.95;1.50;;;10.90;99.90;;;;;;5065111;28;19942;-69
2022/04/13 05:11:51;;;;;;;;;;;10.90;99.90;;;;;;5065338;28;20044;-66
2022/04/13 05:14:18;;;;;;;4.70;2.00;;;11.00;99.90;;;;;;5084003;28;19923;-68
2022/04/13 05:16:44;;;;;;;11.20;2.17;;;11.10;99.90;;;;;;5084385;28;20047;-69
2022/04/13 05:19:10;;;;;;;;;;;11.10;99.90;;;;;;5067688;28;20086;-70
2022/04/13 05:21:35;;;;;;;4.45;1.55;;;11.20;99.90;;;;;;5065652;28;19931;-70
2022/04/13 05:24:01;;;;;;;;;;;11.40;99.90;;;;;;5063286;28;20642;-69
2022/04/13 05:26:26;;;;;;;5.07;1.70;;;11.50;99.90;;;;;;5074801;28;19972;-69
2022/04/13 05:28:52;;;;;;;;;;;11.60;99.90;;;;;;5082955;28;20044;-67
2022/04/13 05:31:17;;;;;;;11.45;2.28;;;11.70;99.90;;;;;;5085075;28;20367;-68
2022/04/13 05:33:43;;;;;;;;;;;11.90;99.90;;;;;;5081156;28;20044;-67
2022/04/13 05:36:09;;;;;;;9.15;2.97;;;12.00;99.90;;;;;;5080960;28;20285;-67
2022/04/13 05:38:36;;;;;;;6.00;2.38;;;12.20;99.60;;;;;;5101124;28;20065;-66
2022/04/13 05:41:01;;;;;;;7.18;2.58;;;12.20;99.70;;;;;;5086449;28;20382;-66
2022/04/13 05:43:28;;;;;;;;;;;12.40;99.90;;;;;;5074956;28;20492;-68
2022/04/13 05:45:54;;;;;;;5.47;2.13;;;12.50;99.90;;;;;;5064536;28;20015;-68
2022/04/13 05:48:20;;;;;;;;;;;12.70;99.90;;;;;;5073425;28;20107;-67
2022/04/13 05:50:45;;;;;;;2.47;1.40;;;12.80;99.90;;;;;;5084876;28;19969;-69
2022/04/13 05:53:11;;;;;;;;;;;12.90;99.90;;;;;;5084720;28;20508;-68
2022/04/13 05:55:36;;;;;;;3.47;1.70;;;12.80;99.90;;;;;;5081286;28;19912;-68
2022/04/13 05:58:02;;;;;;;;;;;12.60;99.90;;;;;;5083756;28;20736;-68
2022/04/13 06:00:28;;;;;;;4.65;1.55;;;12.50;99.90;;;;;;5078541;28;19958;-70
2022/04/13 06:02:54;;;;;;;;;;;12.40;99.90;;;;;;5078243;28;20034;-70
2022/04/13 06:05:21;;;;;;;6.30;1.67;;;12.40;99.90;;;;;;5059562;28;20641;-70
2022/04/13 06:07:47;;;;;;;2.85;1.60;;;12.40;99.90;;;;;;5062799;28;20048;-70
2022/04/13 06:10:12;;;;;;;;;;;12.50;99.90;;;;;;5081099;28;20047;-65
2022/04/13 06:12:38;;;;;;;5.72;1.77;;;12.40;99.90;;;;;;5099021;28;19915;-68
2022/04/13 06:15:08;;;;;;;;;;;12.40;99.90;;;;;;5081504;28;20517;-70
2022/04/13 06:17:34;;;;;;;5.90;2.15;;;12.40;99.90;;;;;;5084935;28;19916;-70
2022/04/13 06:20:00;;;;;;;3.60;1.67;;;12.40;99.90;;;;;;5087015;28;20036;-69
2022/04/13 06:22:26;;;;;;;;;;;12.60;99.90;;;;;;5085709;28;20140;-70
2022/04/13 06:24:52;;;;;;;5.32;1.50;;;12.90;99.90;;;;;;5073712;28;19916;-70
2022/04/13 06:27:19;;;;;;;;;;;13.20;99.90;;;;;;5097761;28;20043;-69
2022/04/13 06:29:45;;;;;;;4.70;1.52;;;13.50;99.90;;;;;;5089194;28;20023;-70
2022/04/13 06:32:12;;;;;;;6.18;1.70;;;13.70;99.90;;;;;;5080811;28;20036;-70
2022/04/13 06:34:38;;;;;;;6.30;2.10;;;14.10;99.90;;;;;;5068093;28;20035;-71
2022/04/13 06:37:04;;;;;;;;;;;14.60;99.00;;;;;;5060263;28;20048;-71
2022/04/13 06:39:30;;;;;;;3.70;1.77;;;15.10;98.30;;;;;;5062206;28;19917;-70
2022/04/13 06:41:55;;;;;;;;;;;15.40;98.00;;;;;;5063339;28;20040;-70
2022/04/13 06:44:21;;;;;;;5.78;1.20;;;15.90;96.20;;;;;;5066067;28;19920;-70
2022/04/13 06:46:47;;;;;;;3.17;1.48;;;16.50;95.90;;;;;;5062940;28;20075;-70
2022/04/13 06:49:12;;;;;;;9.32;1.70;;;16.80;96.10;;;;;;5069590;28;20035;-71
2022/04/13 06:51:38;;;;;;;;;;;16.90;95.30;;;;;;5084008;28;20102;-70
2022/04/13 06:54:03;;;;;;;4.72;2.13;;;16.90;95.30;;;;;;5078371;28;19916;-71
2022/04/13 06:56:29;;;;;;;;;;;16.70;95.90;;;;;;5073753;28;20044;-70
2022/04/13 06:58:55;;;;;;;4.43;1.88;;;16.50;96.00;;;;;;5073645;28;19973;-71
2022/04/13 07:01:20;;;;;;;;;;;16.30;97.00;;;;;;5082366;28;20035;-70
2022/04/13 07:03:46;;;;;;;5.00;2.00;;;16.20;96.90;;;;;;5082048;28;19916;-70
2022/04/13 07:06:12;;;;;;;15.57;2.88;;;16.10;96.70;;;;;;5069065;28;20040;-70
2022/04/13 07:08:37;;;;;;;;;;;16.10;96.70;;;;;;5064488;28;20036;-71
2022/04/13 07:11:03;;;;;;;3.42;1.38;;;16.20;96.80;;;;;;5062823;28;20031;-70
2022/04/13 07:13:29;;;;;;;;;;;16.30;96.20;;;;;;5061236;28;20503;-70
2022/04/13 07:15:54;;;;;;;6.10;1.60;;;16.40;96.30;;;;;;5080343;28;20374;-70
2022/04/13 07:18:20;;;;;;;;;;;16.70;96.20;;;;;;5083723;28;20036;-70
2022/04/13 07:20:46;;;;;;;7.43;2.35;;;16.90;94.50;;;;;;5067599;28;20403;-69
2022/04/13 07:23:11;;;;;;;5.30;1.90;;;17.30;94.90;;;;;;5073368;28;20035;-70
2022/04/13 07:25:37;;;;;;;10.15;1.63;;;17.50;94.50;;;;;;5068776;28;20104;-70
2022/04/13 07:28:03;;;;;;;;;;;17.60;94.00;;;;;;5078773;28;20032;-70
2022/04/13 07:30:29;;;;;;;7.13;2.20;;;17.70;93.70;;;;;;5077080;28;19919;-70
2022/04/13 07:32:55;;;;;;;14.43;1.90;;;17.90;93.20;;;;;;5079631;28;20439;-69
2022/04/13 07:35:21;;;;;;;6.03;1.63;;;18.20;93.50;;;;;;5065996;28;20098;-69
2022/04/13 07:37:47;;;;;;;;;;;18.30;92.90;;;;;;5067380;28;20145;-70
2022/04/13 07:40:14;;;;;;;5.80;1.65;;;18.50;91.30;;;;;;5066985;28;19975;-70
2022/04/13 07:42:40;;;;;;;9.02;2.08;;;18.50;87.40;;;;;;5066286;28;20520;-70
2022/04/13 07:45:06;;;;;;;;;;;18.60;87.50;;;;;;5076541;28;20046;-70
2022/04/13 07:47:32;;;;;;;6.63;1.70;;;18.60;85.20;;;;;;5061949;28;19924;-70
2022/04/13 07:49:58;;;;;;;3.33;1.33;;;19.00;86.60;;;;;;5070100;28;20063;-70
2022/04/13 07:52:24;;;;;;;5.90;1.42;;;19.50;82.20;;;;;;5086972;28;20048;-69
2022/04/13 07:54:49;;;;;;;8.90;1.80;;;19.90;82.70;;;;;;5080410;28;20297;-70
2022/04/13 07:57:15;;;;;;;9.43;1.90;;;20.30;80.30;;;;;;5076738;28;20040;-70
2022/04/13 07:59:41;;;;;;;9.82;2.20;;;20.70;75.50;;;;;;5065637;28;20041;-70
2022/04/13 08:02:08;;;;;;;12.30;2.03;;;21.20;73.50;;;;;;5085553;28;20115;-70
2022/04/13 08:04:34;;;;;;;6.60;1.23;;;21.20;72.10;;;;;;5083013;28;20048;-69
2022/04/13 08:07:00;;;;;;;6.45;1.73;;;20.90;73.80;;;;;;5066730;28;20048;-70
2022/04/13 08:09:26;;;;;;;6.10;2.08;;;20.70;74.20;;;;;;5066551;28;20040;-70
2022/04/13 08:11:52;;;;;;;11.35;2.30;;;21.20;73.70;;;;;;5082957;28;20048;-69
2022/04/13 08:14:22;;;;;;;20.60;2.65;;;21.80;71.40;;;;;;5084905;28;20113;-70
2022/04/13 08:16:49;;;;;;;5.78;2.22;;;22.30;71.30;;;;;;5069707;28;20475;-70
2022/04/13 08:19:14;;;;;;;10.75;2.30;;;22.60;69.00;;;;;;5066144;28;20036;-70
2022/04/13 08:21:40;;;;;;;8.30;2.20;;;22.60;66.10;;;;;;5080111;28;20094;-70
2022/04/13 08:24:06;;;;;;;8.68;2.45;;;22.40;67.50;;;;;;5068510;28;20033;-70
2022/04/13 08:26:32;;;;;;;8.75;2.38;;;22.20;66.40;;;;;;5071481;28;20072;-70
2022/04/13 08:28:57;;;;;;;7.43;2.05;;;22.30;66.90;;;;;;5073187;28;20162;-70
2022/04/13 08:31:23;;;;;;;4.95;1.70;;;22.40;65.80;;;;;;5073560;28;20135;-71
2022/04/13 08:33:49;;;;;;;6.47;1.98;;;22.60;66.00;;;;;;5070092;28;20063;-69
2022/04/13 08:36:14;;;;;;;6.65;2.13;;;22.90;65.70;;;;;;5066705;28;20036;-70
2022/04/13 08:38:40;;;;;;;9.32;2.78;;;23.20;63.10;;;;;;5065975;28;20108;-69
2022/04/13 08:41:20;;;;;;;6.68;2.03;;;23.00;65.30;;;;;;5072197;28;20046;-69
2022/04/13 08:43:58;;;;;;;13.50;2.78;;;22.40;65.00;;;;;;5074421;28;20041;-70
2022/04/13 08:46:25;;;;;;;6.72;2.38;;;21.60;67.70;;;;;;5071732;28;20054;-71
2022/04/13 08:48:55;;;;;;;8.23;2.50;;;20.90;70.40;;;;;;5085514;28;20518;-69
2022/04/13 08:51:23;;;;;;;11.80;2.13;;;20.60;69.60;;;;;;5078110;28;20034;-69
2022/04/13 08:53:59;;;;;;;11.63;2.33;;;20.00;70.70;;;;;;5064494;28;20036;-69
2022/04/13 08:56:25;;;;;;;7.32;2.55;;;19.80;72.60;;;;;;5067896;28;20044;-69
2022/04/13 08:58:54;;;;;;;8.60;2.20;;;19.80;72.40;;;;;;5084187;28;20093;-69
2022/04/13 09:01:29;;;;;;;8.55;1.95;;;19.80;74.30;;;;;;5077245;28;20040;-69
2022/04/13 09:04:00;;;;;;;9.93;2.50;;;19.90;75.40;;;;;;5077313;28;20046;-70
2022/04/13 09:06:28;;;;;;;16.98;2.67;;;20.00;74.80;;;;;;5076513;28;20057;-70
2022/04/13 09:08:56;;;;;;;11.52;2.38;;;20.00;74.70;;;;;;5092652;28;20032;-70
2022/04/13 09:11:22;;;;;;;9.60;2.22;;;19.60;73.50;;;;;;5076983;28;20048;-69
2022/04/13 09:13:49;;;;;;;15.07;2.42;;;19.80;72.80;;;;;;5080338;28;20032;-70
2022/04/13 09:16:15;;;;;;;8.32;1.92;;;19.80;73.60;;;;;;5082189;28;20072;-70
2022/04/13 09:18:45;;;;;;;8.65;2.25;;;19.80;73.20;;;;;;5092153;28;20078;-69
2022/04/13 09:21:17;;;;;;;7.10;2.08;;;19.80;75.70;;;;;;5104071;28;20061;-69
2022/04/13 09:23:44;;;;;;;4.03;2.05;;;19.90;72.40;;;;;;5079125;28;20377;-70
2022/04/13 09:26:10;;;;;;;5.93;2.15;;;20.00;72.60;;;;;;5069377;28;20561;-69
2022/04/13 09:28:37;;;;;;;6.43;1.73;;;19.70;74.10;;;;;;5073998;28;20040;-70
2022/04/13 09:31:04;;;;;;;5.18;1.65;;;19.70;73.70;;;;;;5084390;28;20043;-69
2022/04/13 09:33:30;;;;;;;15.40;2.22;;;19.80;75.60;;;;;;5064627;28;20048;-70
2022/04/13 09:35:56;;;;;;;7.40;2.53;;;19.60;73.20;;;;;;5068866;28;20044;-67
2022/04/13 09:38:24;;;;;;;7.75;2.30;;;19.60;74.40;;;;;;5079033;28;20478;-72
2022/04/13 09:40:53;;;;;;;9.98;1.70;;;19.60;78.40;;;;;;5080463;28;20617;-71
2022/04/13 09:43:23;;;;;;;6.43;2.13;;;19.60;75.20;;;;;;5066667;28;20036;-70
2022/04/13 09:45:50;;;;;;;8.65;2.42;;;19.70;73.10;;;;;;5064233;28;20055;-69
2022/04/13 09:48:18;;;;;;;11.73;2.40;;;19.90;73.10;;;;;;5080262;28;20044;-72
2022/04/13 09:50:46;;;;;;;10.00;2.20;;;19.90;73.80;;;;;;5083623;28;20036;-70
2022/04/13 09:53:14;;;;;;;11.88;2.63;;;20.00;75.00;;;;;;5070221;28;20055;-70
2022/04/13 09:55:42;;;;;;;6.00;2.15;;;20.00;73.80;;;;;;5069217;28;20032;-69
2022/04/13 09:58:13;;;;;;;9.85;2.30;;;20.00;75.10;;;;;;5082439;28;20036;-70
2022/04/13 10:00:41;;;;;;;13.00;2.95;;;19.80;74.80;;;;;;5063321;28;20037;-69
2022/04/13 10:03:13;;;;;;;8.93;2.88;;;19.90;75.40;;;;;;5071839;28;20036;-71
2022/04/13 10:05:45;;;;;;;8.10;1.92;;;20.00;74.80;;;;;;5069688;28;20062;-71
2022/04/13 10:08:14;;;;;;;8.75;2.45;;;20.10;76.30;;;;;;5066943;28;20454;-71
2022/04/13 10:10:45;;;;;;;10.35;2.55;;;20.40;75.70;;;;;;5065733;28;20044;-69
2022/04/13 10:13:12;;;;;;;10.40;2.47;;;20.50;73.10;;;;;;5068569;28;20124;-70
2022/04/13 10:15:38;;;;;;;8.45;2.47;;;20.60;72.50;;;;;;5081299;28;20048;-69
2022/04/13 10:18:05;;;;;;;13.73;3.10;;;20.60;73.30;;;;;;5073657;28;20041;-69
2022/04/13 10:20:43;;;;;;;8.82;2.35;;;20.50;72.20;;;;;;5063025;28;20499;-70
2022/04/13 10:23:09;;;;;;;12.55;2.33;;;20.60;71.90;;;;;;5071999;28;20775;-69
2022/04/13 10:25:35;;;;;;;10.77;2.08;;;20.80;74.30;;;;;;5074522;28;20043;-69
2022/04/13 10:28:01;;;;;;;6.22;2.08;;;20.90;73.00;;;;;;5077978;28;20032;-70
2022/04/13 10:30:35;;;;;;;17.10;2.90;;;20.80;72.50;;;;;;5094257;28;20043;-70
2022/04/13 10:33:03;;;;;;;11.68;2.58;;;20.70;73.20;;;;;;5090042;28;20062;-69
2022/04/13 10:35:32;;;;;;;7.30;2.25;;;20.60;71.80;;;;;;5082324;28;20043;-68
2022/04/13 10:37:58;;;;;;;14.45;2.60;;;20.80;74.30;;;;;;5079254;28;20088;-68
2022/04/13 10:40:32;;;;;;;7.85;2.38;;;20.80;74.50;;;;;;5090994;28;20040;-66
2022/04/13 10:43:01;;;;;;;6.60;2.33;;;20.80;72.40;;;;;;5063746;28;20032;-68
2022/04/13 10:45:30;;;;;;;12.43;2.40;;;20.70;73.30;;;;;;5063028;28;20047;-68
2022/04/13 10:48:05;;;;;;;7.78;2.20;;;20.60;73.50;;;;;;5072550;28;20096;-68
2022/04/13 10:50:45;;;;;;;7.43;2.70;;;20.70;77.70;;;;;;5088458;28;20552;-67
2022/04/13 10:53:46;;;;;;;6.82;2.63;;;20.80;73.10;;;;;;5086963;28;20040;-66
2022/04/13 10:56:12;;;;;;;12.95;2.97;;;20.80;72.10;;;;;;5051468;28;20048;-66
2022/04/13 10:58:49;;;;;;;10.02;2.60;;;20.70;72.50;;;;;;5064909;28;20043;-66
2022/04/13 11:01:17;;;;;;;9.68;2.65;;;20.90;73.50;;;;;;5066270;28;20036;-65
2022/04/13 11:03:43;;;;;;;11.32;2.30;;;20.80;75.00;;;;;;5067921;28;20028;-66
2022/04/13 11:06:11;;;;;;;11.77;2.72;;;20.60;72.20;;;;;;5073306;28;20122;-67
2022/04/13 11:09:08;;;;;;;10.15;3.05;;;20.60;75.30;;;;;;5069387;28;20044;-66
2022/04/13 11:11:35;;;;;;;9.68;2.83;;;20.50;73.40;;;;;;5063458;28;20047;-66
2022/04/13 11:14:22;;;;;;;8.18;2.63;;;20.30;72.30;;;;;;5073451;28;20115;-66
2022/04/13 11:17:13;;;;;;;8.65;2.40;;;20.10;74.70;;;;;;5073866;28;20500;-66
2022/04/13 11:19:40;;;;;;;9.32;2.45;;;20.10;76.30;;;;;;5071818;28;20380;-66
2022/04/13 11:22:06;;;;;;;9.57;2.47;;;20.40;75.50;;;;;;5072003;28;20585;-66
2022/04/13 11:24:39;;;;;;;7.85;2.67;;;20.30;72.40;;;;;;5066424;28;20048;-67
2022/04/13 11:27:07;;;;;;;14.10;2.65;;;20.30;75.90;;;;;;5068067;28;20045;-67
2022/04/13 11:29:36;;;;;;;11.23;2.35;;;20.40;75.00;;;;;;5071572;28;20412;-66
2022/04/13 11:32:02;;;;;;;8.75;2.45;;;20.60;74.90;;;;;;5073352;28;20578;-67
2022/04/13 11:34:57;;;;;;;10.68;2.75;;;20.80;74.50;;;;;;5069951;28;20028;-67
2022/04/13 11:37:25;;;;;;;11.18;2.50;;;20.90;79.20;;;;;;5069022;28;20290;-66
2022/04/13 11:39:52;;;;;;;11.18;2.50;;;20.80;78.40;;;;;;5071739;28;20048;-65
2022/04/13 11:42:21;;;;;;;9.38;2.70;;;20.80;77.40;;;;;;5072865;28;20431;-66
2022/04/13 11:44:51;;;;;;;7.22;2.30;;;20.80;72.30;;;;;;5080077;28;20024;-66
2022/04/13 11:47:19;;;;;;;6.88;2.15;;;20.80;70.80;;;;;;5072655;28;20039;-66
2022/04/13 11:50:00;;;;;;;14.48;2.92;;;21.00;72.50;;;;;;5069465;28;20045;-65
2022/04/13 11:52:43;;;;;;;9.00;2.78;;;21.00;73.90;;;;;;5074940;28;20051;-66
2022/04/13 11:55:25;;;;;;;3.60;1.75;;;21.00;75.40;;;;;;5069055;28;20110;-66
2022/04/13 11:58:07;;;;;;;11.88;2.50;;;21.10;73.70;;;;;;5085621;28;20491;-66
2022/04/13 12:00:41;;;;;;;6.35;2.75;;;21.20;73.90;;;;;;5090331;28;20054;-66
2022/04/13 12:03:11;;;;;;;10.80;2.40;;;21.20;75.40;;;;;;5095453;28;20032;-68
2022/04/13 12:05:45;;;;;;;8.20;2.70;;;21.30;73.30;;;;;;5079312;28;20036;-69
2022/04/13 12:08:13;;;;;;;7.25;2.40;;;21.40;72.00;;;;;;5090939;28;20407;-70
2022/04/13 12:10:45;;;;;;;10.98;2.60;;;21.60;72.20;;;;;;5085912;28;20051;-69
2022/04/13 12:13:11;;;;;;;10.15;3.17;;;21.40;69.00;;;;;;5081246;28;20047;-70
2022/04/13 12:15:56;;;;;;;10.30;3.10;;;21.30;69.30;;;;;;5066080;28;20036;-68
2022/04/13 12:18:24;;;;;;;9.13;2.60;;;21.10;70.60;;;;;;5060034;28;20435;-68
2022/04/13 12:20:52;;;;;;;11.68;2.70;;;21.00;71.40;;;;;;5079154;28;20040;-69
2022/04/13 12:23:27;;;;;;;7.10;2.22;;;21.20;72.30;;;;;;5072052;28;20051;-70
2022/04/13 12:25:54;;;;;;;9.90;2.17;;;21.40;70.80;;;;;;5072966;28;20039;-69
2022/04/13 12:28:22;;;;;;;10.48;2.25;;;21.60;72.40;;;;;;5077085;28;20683;-69
2022/04/13 12:30:56;;;;;;;8.60;2.97;;;21.50;70.30;;;;;;5072789;28;20032;-68
2022/04/13 12:33:24;;;;;;;6.28;2.55;;;21.30;68.60;;;;;;5070402;28;20044;-69
2022/04/13 12:35:51;;;;;;;10.10;2.97;;;21.30;70.10;;;;;;5071517;28;20044;-69
2022/04/13 12:38:25;;;;;;;6.75;2.63;;;21.10;70.40;;;;;;5079560;28;20055;-69
2022/04/13 12:41:21;;;;;;;19.15;2.65;;;21.20;69.70;;;;;;5074133;28;20109;-68
2022/04/13 12:43:58;;;;;;;7.15;2.28;;;21.20;74.50;;;;;;5055575;28;20131;-68
2022/04/13 12:46:26;;;;;;;8.25;2.45;;;21.50;70.20;;;;;;5065455;28;20743;-68
2022/04/13 12:48:53;;;;;;;7.75;2.38;;;21.70;73.10;;;;;;5064588;28;20094;-69
2022/04/13 12:51:20;;;;;;;10.73;2.65;;;21.90;69.50;;;;;;5069633;28;20036;-68
2022/04/13 12:54:00;;;;;;;9.60;2.42;;;22.00;68.80;;;;;;5065267;28;20041;-68
2022/04/13 12:56:31;;;;;;;10.48;3.03;;;22.20;69.70;;;;;;5066436;28;20091;-68
2022/04/13 12:58:57;;;;;;;6.97;2.75;;;22.20;70.80;;;;;;5072207;28;20546;-68
2022/04/13 13:01:25;;;;;;;8.43;2.17;;;22.10;71.20;;;;;;5075226;28;20040;-68
2022/04/13 13:03:52;;;;;;;8.55;2.30;;;22.20;67.60;;;;;;5064385;28;20043;-68
2022/04/13 13:06:18;;;;;;;12.10;2.70;;;22.00;71.10;;;;;;5071220;28;20048;-67